createdAt,value
2023-02-24T00:00:32.656Z,4.70
2023-02-24T00:05:36.707Z,4.70
2023-02-24T00:10:38.790Z,4.70
2023-02-24T00:15:41.019Z,4.60
2023-02-24T00:20:43.116Z,4.70
2023-02-24T00:25:45.342Z,4.70
2023-02-24T00:30:47.599Z,4.70
2023-02-24T00:35:50.699Z,4.80
2023-02-24T00:40:52.980Z,4.80
2023-02-24T00:45:55.135Z,4.80
2023-02-24T00:50:57.226Z,4.70
2023-02-24T00:56:02.714Z,4.80
2023-02-24T01:01:05.483Z,4.80
2023-02-24T01:06:08.203Z,4.70
2023-02-24T01:11:28.925Z,4.70
2023-02-24T01:16:31.053Z,4.70
2023-02-24T01:21:33.193Z,4.60
2023-02-24T01:26:35.302Z,4.60
2023-02-24T01:31:42.819Z,4.50
2023-02-24T01:36:47.396Z,4.40
2023-02-24T01:41:50.881Z,4.30
2023-02-24T01:46:53.818Z,4.20
2023-02-24T01:52:03.058Z,4.20
2023-02-24T01:57:08.101Z,4.20
2023-02-24T02:02:10.979Z,4.20
2023-02-24T02:07:18.619Z,4.20
2023-02-24T02:12:21.004Z,4.10
2023-02-24T02:17:58.803Z,4.00
2023-02-24T02:23:12.988Z,3.90
2023-02-24T02:28:46.073Z,3.90
2023-02-24T02:33:51.223Z,3.90
2023-02-24T02:39:03.241Z,3.90
2023-02-24T02:44:21.239Z,3.90
2023-02-24T02:49:38.731Z,3.90
2023-02-24T02:54:56.648Z,3.90
2023-02-24T03:00:13.783Z,3.80
2023-02-24T03:05:20.495Z,3.70
2023-02-24T03:10:27.809Z,3.80
2023-02-24T03:15:32.897Z,3.80
2023-02-24T03:20:42.978Z,3.80
2023-02-24T03:25:53.379Z,3.80
2023-02-24T03:31:04.233Z,3.80
2023-02-24T03:36:07.183Z,3.90
2023-02-24T03:41:13.580Z,3.90
2023-02-24T03:46:19.333Z,3.80
2023-02-24T03:51:26.668Z,3.80
2023-02-24T03:56:46.691Z,3.90
2023-02-24T04:01:58.216Z,3.90
2023-02-24T04:07:16.507Z,3.90
2023-02-24T04:12:27.213Z,3.90
2023-02-24T04:17:59.837Z,3.90
2023-02-24T04:23:17.676Z,3.90
2023-02-24T04:28:23.500Z,3.90
2023-02-24T04:33:27.621Z,3.90
2023-02-24T04:38:29.981Z,3.90
2023-02-24T04:43:33.150Z,3.90
2023-02-24T04:48:35.524Z,3.80
2023-02-24T04:53:38.179Z,3.80
2023-02-24T04:58:41.276Z,3.80
2023-02-24T05:03:43.592Z,3.80
2023-02-24T05:08:45.724Z,3.80
2023-02-24T05:13:47.856Z,3.80
2023-02-24T05:18:50.000Z,3.80
2023-02-24T05:23:54.682Z,3.90
2023-02-24T05:28:59.769Z,3.90
2023-02-24T05:34:05.184Z,3.90
2023-02-24T05:39:09.397Z,4.00
2023-02-24T05:44:13.853Z,4.00
2023-02-24T05:49:23.609Z,4.00
2023-02-24T05:54:29.946Z,4.00
2023-02-24T05:59:33.261Z,4.00
2023-02-24T06:04:45.984Z,4.00
2023-02-24T06:09:53.942Z,3.90
2023-02-24T06:14:58.220Z,3.90
2023-02-24T06:20:00.572Z,3.90
2023-02-24T06:25:05.391Z,3.90
2023-02-24T06:30:10.633Z,3.80
2023-02-24T06:35:12.900Z,3.70
2023-02-24T06:40:17.875Z,3.70
2023-02-24T06:45:20.969Z,3.60
2023-02-24T06:50:23.477Z,3.60
2023-02-24T06:55:25.737Z,3.60
2023-02-24T07:00:39.139Z,3.60
2023-02-24T07:06:12.386Z,3.60
2023-02-24T07:11:17.905Z,3.60
2023-02-24T07:16:25.284Z,3.60
2023-02-24T07:21:30.234Z,3.60
2023-02-24T07:26:32.388Z,3.60
2023-02-24T07:31:35.799Z,3.50
2023-02-24T07:36:49.371Z,3.50
2023-02-24T07:41:57.281Z,3.40
2023-02-24T07:46:59.543Z,3.40
2023-02-24T07:52:02.051Z,3.30
2023-02-24T07:57:05.901Z,3.30
2023-02-24T08:02:11.467Z,3.20
2023-02-24T08:07:14.685Z,3.10
2023-02-24T08:12:22.644Z,3.00
2023-02-24T08:17:26.789Z,3.00
2023-02-24T08:22:37.507Z,2.90
2023-02-24T08:27:42.382Z,3.00
2023-02-24T08:32:45.032Z,3.00
2023-02-24T08:37:50.330Z,3.00
2023-02-24T08:42:52.403Z,3.00
2023-02-24T08:48:00.673Z,3.00
2023-02-24T08:53:02.985Z,3.10
2023-02-24T08:58:11.131Z,3.10
2023-02-24T09:03:16.448Z,3.10
2023-02-24T09:08:24.171Z,3.10
2023-02-24T09:13:33.182Z,3.20
2023-02-24T09:18:38.574Z,3.10
2023-02-24T09:23:46.190Z,3.20
2023-02-24T09:28:55.739Z,3.20
2023-02-24T09:34:01.785Z,3.30
2023-02-24T09:39:03.986Z,3.30
2023-02-24T09:44:18.599Z,3.30
2023-02-24T09:49:27.558Z,3.30
2023-02-24T09:54:38.279Z,3.40
2023-02-24T09:59:51.129Z,3.40
2023-02-24T10:05:11.477Z,3.50
2023-02-24T10:10:28.849Z,3.60
2023-02-24T10:15:57.788Z,3.60
2023-02-24T10:21:18.166Z,3.60
2023-02-24T10:26:33.454Z,3.60
2023-02-24T10:31:48.426Z,3.60
2023-02-24T10:36:51.130Z,3.60
2023-02-24T10:42:15.953Z,3.70
2023-02-24T10:47:31.226Z,3.70
2023-02-24T10:52:57.672Z,3.90
2023-02-24T10:58:06.518Z,4.00
2023-02-24T11:03:22.091Z,4.20
2023-02-24T11:08:47.173Z,4.30
2023-02-24T11:14:12.485Z,4.60
2023-02-24T11:19:15.840Z,4.70
2023-02-24T11:24:19.546Z,5.30
2023-02-24T11:29:36.706Z,5.50
2023-02-24T11:34:58.229Z,5.80
2023-02-24T11:40:35.615Z,6.20
2023-02-24T11:45:51.740Z,6.60
2023-02-24T11:51:15.476Z,7.70
2023-02-24T11:56:28.215Z,7.80
2023-02-24T12:01:40.472Z,7.10
2023-02-24T12:07:18.899Z,6.70
2023-02-24T12:12:51.013Z,6.40
2023-02-24T12:18:25.546Z,6.30
2023-02-24T12:23:37.621Z,6.50
2023-02-24T12:28:49.573Z,6.40
2023-02-24T12:34:00.402Z,6.40
2023-02-24T12:39:11.386Z,6.70
2023-02-24T12:44:25.562Z,7.10
2023-02-24T12:49:42.930Z,8.90
2023-02-24T12:55:06.527Z,13.00
2023-02-24T13:00:22.572Z,16.10
2023-02-24T13:06:02.760Z,14.30
2023-02-24T13:11:14.928Z,11.30
2023-02-24T13:16:29.673Z,9.90
2023-02-24T13:21:33.639Z,8.80
2023-02-24T13:26:35.983Z,9.70
2023-02-24T13:31:50.857Z,10.60
2023-02-24T13:36:53.192Z,11.30
2023-02-24T13:42:07.275Z,9.90
2023-02-24T13:47:17.007Z,9.20
2023-02-24T13:52:41.624Z,10.50
2023-02-24T13:57:53.355Z,9.90
2023-02-24T14:02:56.310Z,9.70
2023-02-24T14:07:59.382Z,10.50
2023-02-24T14:13:08.130Z,10.00
2023-02-24T14:18:20.352Z,9.20
2023-02-24T14:23:34.021Z,9.10
2023-02-24T14:28:40.480Z,10.20
2023-02-24T14:33:45.006Z,9.70
2023-02-24T14:38:47.307Z,9.40
2023-02-24T14:43:51.108Z,11.00
2023-02-24T14:48:56.268Z,13.10
2023-02-24T15:07:24.088Z,11.90
2023-02-24T15:12:44.257Z,10.10
2023-02-24T15:17:50.584Z,8.60
2023-02-24T15:22:53.100Z,7.90
2023-02-24T15:28:01.052Z,7.70
2023-02-24T15:33:24.682Z,7.30
2023-02-24T15:38:34.469Z,7.00
2023-02-24T15:43:45.795Z,6.90
2023-02-24T15:48:49.474Z,6.80
2023-02-24T15:53:52.301Z,6.70
2023-02-24T15:58:54.489Z,6.60
2023-02-24T16:03:57.288Z,6.60
2023-02-24T16:08:59.985Z,6.50
2023-02-24T16:14:02.560Z,6.40
2023-02-24T16:19:04.690Z,6.30
2023-02-24T16:24:06.938Z,6.40
2023-02-24T16:29:14.344Z,6.30
2023-02-24T16:34:16.821Z,6.20
2023-02-24T16:39:19.074Z,6.20
2023-02-24T16:44:23.346Z,6.10
2023-02-24T16:49:25.636Z,5.90
2023-02-24T16:54:29.483Z,5.80
2023-02-24T16:59:31.816Z,5.70
2023-02-24T17:04:34.098Z,5.60
2023-02-24T17:09:36.177Z,5.40
2023-02-24T17:14:38.676Z,5.30
2023-02-24T17:19:40.756Z,5.40
2023-02-24T17:24:59.323Z,5.30
2023-02-24T17:30:01.707Z,5.30
2023-02-24T17:35:04.080Z,5.40
2023-02-24T17:40:11.070Z,5.50
2023-02-24T17:45:14.513Z,5.50
2023-02-24T17:50:16.995Z,5.50
2023-02-24T17:55:19.429Z,5.30
2023-02-24T18:00:21.566Z,5.30
2023-02-24T18:05:23.938Z,5.20
2023-02-24T18:10:27.401Z,5.20
2023-02-24T18:15:29.841Z,5.10
2023-02-24T18:20:32.145Z,5.20
2023-02-24T18:25:34.773Z,5.20
2023-02-24T18:30:39.347Z,5.30
2023-02-24T18:35:41.574Z,5.30
2023-02-24T18:40:44.254Z,5.30
2023-02-24T18:45:46.640Z,5.30
2023-02-24T18:50:53.824Z,5.30
2023-02-24T18:56:03.691Z,5.30
2023-02-24T19:01:26.926Z,5.40
2023-02-24T19:06:30.981Z,5.40
2023-02-24T19:11:33.764Z,5.40
2023-02-24T19:16:36.860Z,5.40
2023-02-24T19:21:38.980Z,5.50
2023-02-24T19:26:43.879Z,5.50
2023-02-24T19:31:47.056Z,5.40
2023-02-24T19:36:49.577Z,5.30
2023-02-24T19:41:53.345Z,5.30
2023-02-24T19:46:55.572Z,5.20
2023-02-24T19:51:59.253Z,5.20
2023-02-24T19:57:02.094Z,5.10
2023-02-24T20:02:04.660Z,5.10
2023-02-24T20:07:07.456Z,5.10
2023-02-24T20:12:12.237Z,5.00
2023-02-24T20:17:14.721Z,4.90
2023-02-24T20:22:16.937Z,4.90
2023-02-24T20:27:19.439Z,4.90
2023-02-24T20:37:49.895Z,5.00
2023-02-24T20:42:52.117Z,5.00
2023-02-24T20:47:54.617Z,5.00
2023-02-24T20:52:57.533Z,4.90
2023-02-24T20:58:00.000Z,4.80
2023-02-24T21:03:03.546Z,4.70
2023-02-24T21:08:06.238Z,4.60
2023-02-24T21:13:08.453Z,4.50
2023-02-24T21:18:11.062Z,4.40
2023-02-24T21:23:13.605Z,4.30
2023-02-24T21:28:15.741Z,4.30
2023-02-24T21:33:18.929Z,4.40
2023-02-24T21:38:21.014Z,4.50
2023-02-24T21:43:24.395Z,4.50
2023-02-24T21:48:26.538Z,4.60
2023-02-24T21:53:30.110Z,4.50
2023-02-24T21:58:33.149Z,4.60
2023-02-24T22:03:35.344Z,4.60
2023-02-24T22:08:43.417Z,4.70
2023-02-24T22:13:46.776Z,4.60
2023-02-24T22:18:50.089Z,4.60
2023-02-24T22:23:56.384Z,4.70
2023-02-24T22:28:59.546Z,4.70
2023-02-24T22:34:01.870Z,4.80
2023-02-24T22:39:04.850Z,4.80
2023-02-24T22:44:07.287Z,4.70
2023-02-24T22:49:10.339Z,4.80
2023-02-24T22:54:12.584Z,4.70
2023-02-24T22:59:16.186Z,4.60
2023-02-24T23:04:20.325Z,4.50
2023-02-24T23:09:23.344Z,4.40
2023-02-24T23:14:27.006Z,4.20
2023-02-24T23:19:29.926Z,4.10
2023-02-24T23:24:32.034Z,4.00
2023-02-24T23:29:34.342Z,3.90
2023-02-24T23:34:37.158Z,3.90
2023-02-24T23:39:39.334Z,3.90
2023-02-24T23:44:41.541Z,3.80
2023-02-24T23:49:48.385Z,3.70
2023-02-24T23:54:52.701Z,3.70
2023-02-24T23:59:55.140Z,3.60
